Time;durP1;ratioP1;P1;durP2;ratioP2;P2;SDS_P1;SDS_P2;PMS_P1;PMS_P2;Temp;Humidity;BMP_temperature;BMP_pressure;BME280_temperature;BME280_humidity;BME280_pressure;Samples;Min_cycle;Max_cycle;Signal;HPM_P1;HPM_P2
2023/03/25 00:02:05;;;;;;;17.70;7.15;;;;;;;16.09;56.89;96464.13;5038291;28;20036;-32
2023/03/25 00:04:31;;;;;;;9.50;6.75;;;;;;;16.31;56.02;96474.84;5047033;28;20025;-32
2023/03/25 00:06:56;;;;;;;10.90;6.03;;;;;;;16.11;56.16;96474.59;5044351;28;20025;-33
2023/03/25 00:09:22;;;;;;;7.50;5.57;;;;;;;16.23;55.90;96472.88;5043793;28;20031;-33
2023/03/25 00:11:50;;;;;;;7.10;5.28;;;;;;;16.43;55.32;96470.38;5042647;28;20049;-35
2023/03/25 00:14:16;;;;;;;8.77;5.95;;;;;;;16.24;55.50;96466.19;5043990;28;20487;-33
2023/03/25 00:16:47;;;;;;;7.65;6.30;;;;;;;16.15;55.30;96462.28;5042522;28;20055;-33
2023/03/25 00:19:14;;;;;;;7.60;5.65;;;;;;;16.19;55.11;96469.56;5043837;28;20070;-33
2023/03/25 00:21:43;;;;;;;6.47;5.25;;;;;;;16.23;54.98;96461.94;5043740;28;20025;-33
2023/03/25 00:24:11;;;;;;;6.85;4.60;;;;;;;16.15;54.76;96467.75;5043640;28;20404;-32
2023/03/25 00:26:41;;;;;;;5.47;4.43;;;;;;;16.05;55.05;96469.00;5047313;28;20024;-33
2023/03/25 00:29:09;;;;;;;5.10;4.20;;;;;;;16.23;54.33;96464.69;5046533;28;20037;-33
2023/03/25 00:31:35;;;;;;;5.78;4.10;;;;;;;16.31;53.99;96461.16;5047452;28;20024;-32
2023/03/25 00:34:00;;;;;;;5.47;3.92;;;;;;;16.19;54.26;96466.84;5039504;28;20025;-34
2023/03/25 00:36:28;;;;;;;6.15;4.18;;;;;;;16.11;54.24;96461.69;5051623;28;20452;-33
2023/03/25 00:38:54;;;;;;;5.10;3.88;;;;;;;16.30;53.65;96462.38;5044131;28;20079;-32
2023/03/25 00:41:24;;;;;;;4.65;3.50;;;;;;;16.11;53.91;96460.91;5045860;28;20354;-33
2023/03/25 00:43:57;;;;;;;4.72;3.67;;;;;;;16.44;53.39;96452.75;5041483;28;20473;-33
2023/03/25 00:46:25;;;;;;;5.03;3.28;;;;;;;16.31;53.65;96452.94;5051782;28;20025;-34
2023/03/25 00:48:51;;;;;;;4.63;3.42;;;;;;;16.28;53.87;96455.84;5049025;28;20041;-33
2023/03/25 00:51:20;;;;;;;5.43;3.13;;;;;;;16.26;53.68;96458.28;5046414;28;20027;-33
2023/03/25 00:53:50;;;;;;;5.65;3.25;;;;;;;16.34;53.30;96452.00;5044097;28;20017;-33
2023/03/25 00:56:16;;;;;;;4.22;3.20;;;;;;;16.33;53.49;96447.00;5045889;28;20029;-32
2023/03/25 00:58:42;;;;;;;3.58;2.50;;;;;;;16.32;53.45;96443.50;5044130;28;20034;-33
2023/03/25 01:01:12;;;;;;;4.63;3.00;;;;;;;16.24;53.83;96447.81;5036520;28;20021;-33
2023/03/25 01:03:44;;;;;;;5.30;3.20;;;;;;;16.15;54.06;96443.13;5037295;28;20104;-32
2023/03/25 01:06:14;;;;;;;4.93;3.05;;;;;;;16.24;53.62;96442.31;5041945;28;20067;-33
2023/03/25 01:08:41;;;;;;;3.72;3.10;;;;;;;16.20;53.91;96441.72;5043785;28;20020;-33
2023/03/25 01:11:17;;;;;;;3.75;3.22;;;;;;;16.19;53.82;96434.75;5043629;28;20040;-33
2023/03/25 01:13:43;;;;;;;5.25;3.20;;;;;;;16.14;54.06;96443.59;5043612;28;20027;-32
2023/03/25 01:16:09;;;;;;;4.22;3.30;;;;;;;16.16;54.13;96430.97;5043188;28;20029;-33
2023/03/25 01:18:36;;;;;;;4.57;3.17;;;;;;;16.07;54.16;96427.53;5043441;28;20029;-33
2023/03/25 01:21:03;;;;;;;3.85;3.00;;;;;;;16.34;53.70;96427.38;5045887;28;20075;-33
2023/03/25 01:23:30;;;;;;;5.32;3.53;;;;;;;16.21;54.02;96415.13;5047844;28;20030;-33
2023/03/25 01:25:55;;;;;;;4.15;3.33;;;;;;;16.06;54.39;96407.63;5043508;28;20026;-32
2023/03/25 01:28:21;;;;;;;3.88;3.40;;;;;;;16.15;54.39;96407.56;5040040;28;20171;-33
2023/03/25 01:30:46;;;;;;;3.90;3.35;;;;;;;16.15;54.45;96399.34;5046607;28;20049;-33
2023/03/25 01:33:11;;;;;;;5.60;3.85;;;;;;;16.24;54.17;96400.53;5038153;28;20025;-33
2023/03/25 01:35:37;;;;;;;4.80;3.78;;;;;;;16.35;54.26;96395.28;5041085;28;20104;-33
2023/03/25 01:38:04;;;;;;;4.38;3.45;;;;;;;16.11;54.72;96406.22;5041349;28;20040;-33
2023/03/25 01:40:29;;;;;;;7.72;4.55;;;;;;;16.26;54.53;96411.75;5042807;28;20071;-33
2023/03/25 01:42:55;;;;;;;4.97;3.83;;;;;;;16.16;54.58;96406.34;5048359;28;20017;-32
2023/03/25 01:45:23;;;;;;;4.88;3.80;;;;;;;16.07;55.02;96400.91;5044226;28;20024;-33
2023/03/25 01:47:54;;;;;;;4.18;3.65;;;;;;;16.07;55.20;96409.09;5042554;28;20188;-34
2023/03/25 01:50:20;;;;;;;4.45;3.58;;;;;;;16.00;55.36;96414.16;5044082;28;20036;-33
2023/03/25 01:52:50;;;;;;;4.43;3.95;;;;;;;16.06;55.36;96415.81;5042117;28;20021;-33
2023/03/25 01:55:19;;;;;;;4.80;4.30;;;;;;;16.16;55.14;96406.34;5042204;28;20037;-33
2023/03/25 01:57:46;;;;;;;6.00;3.85;;;;;;;16.12;55.27;96400.28;5042680;28;20028;-33
2023/03/25 02:00:14;;;;;;;5.78;4.03;;;;;;;16.15;55.39;96402.09;5042726;28;20465;-32
2023/03/25 02:02:41;;;;;;;5.15;4.28;;;;;;;16.24;55.05;96406.00;5050507;28;20030;-32
2023/03/25 02:05:40;;;;;;;6.82;4.18;;;;;;;16.21;55.21;96404.19;5040703;28;20020;-33
2023/03/25 02:08:08;;;;;;;8.13;4.55;;;;;;;15.98;55.94;96395.47;5042834;28;20037;-34
2023/03/25 02:10:34;;;;;;;5.82;4.70;;;;;;;16.11;55.61;96392.53;5044998;28;20061;-33
2023/03/25 02:13:01;;;;;;;6.20;4.20;;;;;;;15.90;56.79;96388.06;5038664;28;20025;-33
2023/03/25 02:15:39;;;;;;;6.07;4.47;;;;;;;16.09;55.98;96392.22;5039279;28;20048;-33
2023/03/25 02:18:16;;;;;;;5.07;4.15;;;;;;;15.96;56.28;96384.22;5038276;28;20021;-33
2023/03/25 02:21:02;;;;;;;6.97;5.07;;;;;;;16.02;56.22;96376.94;5044850;28;20029;-32
2023/03/25 02:23:27;;;;;;;5.43;4.82;;;;;;;15.92;56.45;96369.22;5040374;28;20112;-33
2023/03/25 02:26:04;;;;;;;5.80;4.53;;;;;;;15.87;56.70;96362.41;5043901;28;20117;-33
2023/03/25 02:28:35;;;;;;;7.70;4.72;;;;;;;15.96;56.31;96356.88;5042501;28;20025;-33
2023/03/25 02:31:33;;;;;;;6.18;4.57;;;;;;;15.95;56.24;96351.91;5049289;28;20053;-33
2023/03/25 02:34:10;;;;;;;6.28;4.93;;;;;;;16.20;55.77;96348.69;5047064;28;20079;-32
2023/03/25 02:37:04;;;;;;;6.13;4.43;;;;;;;15.91;56.51;96343.09;5038188;28;20487;-32
2023/03/25 02:39:51;;;;;;;5.32;4.50;;;;;;;16.03;56.17;96342.13;5038818;28;20547;-33
2023/03/25 02:42:43;;;;;;;6.68;4.68;;;;;;;15.96;56.47;96354.16;5042963;28;20028;-33
2023/03/25 02:45:40;;;;;;;6.47;4.95;;;;;;;15.81;56.91;96342.38;5041669;28;20043;-32
2023/03/25 02:48:11;;;;;;;7.80;5.13;;;;;;;15.77;57.13;96348.00;5044194;28;20049;-33
2023/03/25 02:50:45;;;;;;;6.50;5.03;;;;;;;15.78;56.91;96343.31;5044781;28;20053;-33
2023/03/25 02:53:18;;;;;;;5.78;5.03;;;;;;;15.88;56.87;96347.50;5044328;28;20032;-33
2023/03/25 02:55:46;;;;;;;5.82;4.75;;;;;;;16.02;56.42;96341.38;5038119;28;20029;-33
2023/03/25 02:58:16;;;;;;;6.00;4.32;;;;;;;16.09;56.31;96343.75;5038172;28;20112;-33
2023/03/25 03:00:43;;;;;;;5.57;4.32;;;;;;;15.91;56.81;96345.84;5041975;28;20022;-32
2023/03/25 03:03:09;;;;;;;6.15;4.82;;;;;;;15.98;56.77;96343.50;5036346;28;20035;-34
2023/03/25 03:05:45;;;;;;;5.47;4.57;;;;;;;15.91;56.71;96346.59;5034984;28;20378;-32
2023/03/25 03:08:32;;;;;;;6.57;5.20;;;;;;;15.98;56.79;96346.25;5040019;28;20033;-33
2023/03/25 03:11:20;;;;;;;6.35;4.47;;;;;;;15.83;57.16;96345.38;5041523;28;20508;-34
2023/03/25 03:14:10;;;;;;;6.70;4.80;;;;;;;15.81;57.25;96353.31;5041639;28;20488;-33
2023/03/25 03:16:41;;;;;;;5.40;4.72;;;;;;;15.80;57.16;96347.09;5040631;28;20025;-33
2023/03/25 03:19:30;;;;;;;6.25;4.43;;;;;;;15.89;57.15;96343.56;5037146;28;20091;-33
2023/03/25 03:22:16;;;;;;;5.93;4.07;;;;;;;15.91;56.76;96346.59;5035300;28;20063;-32
2023/03/25 03:25:03;;;;;;;5.28;4.40;;;;;;;15.78;57.16;96346.81;5041532;28;20061;-32
2023/03/25 03:27:54;;;;;;;6.18;4.22;;;;;;;15.72;56.99;96359.56;5041086;28;20021;-32
2023/03/25 03:30:31;;;;;;;4.93;4.40;;;;;;;15.63;57.72;96358.84;5042757;28;20033;-32
2023/03/25 03:33:20;;;;;;;5.13;4.10;;;;;;;15.79;57.24;96361.22;5042685;28;20029;-33
2023/03/25 03:35:56;;;;;;;6.25;4.15;;;;;;;15.96;56.86;96359.63;5040409;28;20032;-32
2023/03/25 03:38:26;;;;;;;6.43;4.00;;;;;;;15.96;56.79;96356.88;5043863;28;20126;-33
2023/03/25 03:40:57;;;;;;;6.25;4.03;;;;;;;15.88;57.11;96365.91;5037663;28;20017;-33
2023/03/25 03:43:23;;;;;;;6.88;4.10;;;;;;;15.78;57.43;96359.72;5042884;28;20082;-33
2023/03/25 03:45:53;;;;;;;5.93;4.30;;;;;;;15.86;57.07;96355.41;5038461;28;20100;-33
2023/03/25 03:48:48;;;;;;;4.97;4.13;;;;;;;15.81;57.23;96367.00;5048775;28;20086;-33
2023/03/25 03:51:28;;;;;;;3.67;3.38;;;;;;;15.66;57.62;96375.09;5035651;28;20057;-33
2023/03/25 03:54:04;;;;;;;7.07;4.32;;;;;;;15.78;57.53;96370.66;5041301;28;20404;-34
2023/03/25 03:56:53;;;;;;;6.57;4.95;;;;;;;15.83;57.30;96364.53;5041505;28;20029;-33
2023/03/25 03:59:33;;;;;;;4.65;4.15;;;;;;;15.78;57.68;96359.72;5042549;28;20021;-32
2023/03/25 04:02:03;;;;;;;6.25;4.38;;;;;;;15.77;57.31;96361.69;5032915;28;20018;-32
2023/03/25 04:04:29;;;;;;;7.07;4.25;;;;;;;15.76;57.39;96356.69;5040989;28;20033;-34
2023/03/25 04:07:15;;;;;;;5.70;4.30;;;;;;;15.69;57.66;96357.78;5040868;28;20017;-33
2023/03/25 04:10:02;;;;;;;5.00;4.50;;;;;;;15.74;57.47;96346.19;5041599;28;20060;-33
2023/03/25 04:12:32;;;;;;;4.93;4.25;;;;;;;15.75;57.55;96349.69;5037050;28;20021;-33
2023/03/25 04:15:02;;;;;;;4.72;4.10;;;;;;;15.78;56.88;96346.03;5042711;28;20028;-32
2023/03/25 04:17:31;;;;;;;6.85;4.57;;;;;;;15.74;57.03;96342.69;5037650;28;20076;-32
2023/03/25 04:19:58;;;;;;;5.47;4.40;;;;;;;15.89;56.64;96346.28;5042121;28;20431;-32
2023/03/25 04:22:24;;;;;;;5.53;3.90;;;;;;;15.74;57.11;96351.66;5038274;28;20033;-32
2023/03/25 04:24:53;;;;;;;5.57;4.20;;;;;;;15.93;56.74;96360.56;5040280;28;20026;-33
2023/03/25 04:27:21;;;;;;;4.78;3.90;;;;;;;15.87;57.16;96372.59;5039548;28;20021;-33
2023/03/25 04:29:48;;;;;;;5.07;3.85;;;;;;;15.86;56.85;96371.06;5040005;28;20022;-32
2023/03/25 04:32:14;;;;;;;5.85;4.13;;;;;;;15.88;56.65;96379.56;5040807;28;20022;-33
2023/03/25 04:34:40;;;;;;;4.65;4.18;;;;;;;15.83;56.98;96372.75;5039131;28;20070;-33
2023/03/25 04:37:06;;;;;;;5.50;3.83;;;;;;;15.55;57.52;96374.06;5041922;28;20428;-33
2023/03/25 04:39:31;;;;;;;5.18;3.88;;;;;;;15.72;57.17;96378.72;5043682;28;20016;-34
2023/03/25 04:42:02;;;;;;;6.25;4.85;;;;;;;15.79;56.78;96372.16;5042991;28;20021;-34
2023/03/25 04:44:28;;;;;;;6.82;4.03;;;;;;;15.80;56.70;96381.88;5048093;28;20037;-32
2023/03/25 04:46:54;;;;;;;5.43;4.05;;;;;;;15.77;56.88;96386.28;5033291;28;20021;-33
2023/03/25 04:49:22;;;;;;;5.03;4.10;;;;;;;15.77;56.91;96391.00;5033644;28;20049;-33
2023/03/25 04:51:54;;;;;;;6.75;3.80;;;;;;;15.75;56.50;96394.19;5043543;28;20545;-32
2023/03/25 04:54:20;;;;;;;5.43;4.30;;;;;;;15.72;57.31;96395.09;5034777;28;20048;-32
2023/03/25 04:56:50;;;;;;;5.65;3.80;;;;;;;15.85;56.48;96385.94;5039918;28;20540;-33
2023/03/25 04:59:23;;;;;;;4.78;4.07;;;;;;;15.84;56.56;96389.91;5039969;28;20397;-32
2023/03/25 05:01:49;;;;;;;5.07;4.10;;;;;;;15.90;56.62;96388.06;5039989;28;20071;-32
2023/03/25 05:04:16;;;;;;;7.20;4.20;;;;;;;15.75;56.99;96393.44;5041986;28;20025;-32
2023/03/25 05:06:44;;;;;;;4.85;3.70;;;;;;;15.84;56.79;96415.28;5039503;28;20059;-32
2023/03/25 05:09:13;;;;;;;6.57;4.15;;;;;;;15.84;56.86;96423.47;5039597;28;20027;-34
2023/03/25 05:11:40;;;;;;;6.18;4.30;;;;;;;15.69;57.36;96428.09;5042191;28;20021;-33
2023/03/25 05:14:10;;;;;;;7.22;4.70;;;;;;;15.80;57.34;96428.38;5047312;28;20087;-33
2023/03/25 05:16:36;;;;;;;5.55;4.32;;;;;;;15.71;57.54;96425.63;5045148;28;20025;-32
2023/03/25 05:19:02;;;;;;;6.47;4.55;;;;;;;15.57;58.00;96432.53;5046261;28;20961;-32
2023/03/25 05:21:30;;;;;;;6.85;4.70;;;;;;;15.69;58.34;96439.03;5046803;28;20021;-33
2023/03/25 05:23:57;;;;;;;5.93;4.55;;;;;;;15.89;57.61;96431.06;5038165;28;20029;-33
2023/03/25 05:26:23;;;;;;;6.47;4.72;;;;;;;15.89;57.62;96425.59;5042712;28;20022;-33
2023/03/25 05:28:50;;;;;;;5.45;4.47;;;;;;;16.00;57.22;96416.91;5042833;28;20022;-32
2023/03/25 05:31:17;;;;;;;6.22;4.80;;;;;;;16.01;57.29;96416.44;5050452;28;20025;-33
2023/03/25 05:33:42;;;;;;;7.63;4.80;;;;;;;15.91;57.82;96420.44;5041674;28;20025;-33
2023/03/25 05:36:15;;;;;;;5.63;4.57;;;;;;;16.06;56.87;96424.03;5050172;28;20377;-33
2023/03/25 05:38:42;;;;;;;7.45;4.82;;;;;;;15.80;57.62;96431.09;5041352;28;20017;-32
2023/03/25 05:41:15;;;;;;;7.65;4.60;;;;;;;15.80;58.08;96433.84;5044930;28;20029;-33
2023/03/25 05:43:49;;;;;;;11.15;4.55;;;;;;;15.94;57.58;96430.47;5036318;28;20033;-33
2023/03/25 05:46:17;;;;;;;4.95;4.13;;;;;;;15.93;57.70;96439.88;5050209;28;20381;-33
2023/03/25 05:48:43;;;;;;;6.03;4.47;;;;;;;15.95;57.76;96439.41;5046994;28;20037;-32
2023/03/25 05:51:15;;;;;;;6.05;4.47;;;;;;;15.86;57.87;96445.66;5038352;28;20028;-32
2023/03/25 05:53:48;;;;;;;4.70;4.13;;;;;;;15.75;58.31;96434.44;5035955;28;20128;-32
2023/03/25 05:56:13;;;;;;;;;;;;;;;15.97;57.54;96448.66;5042408;28;20436;-34
2023/03/25 05:58:39;;;;;;;6.82;4.53;;;;;;;16.02;57.75;96452.75;5044725;28;19909;-33
2023/03/25 06:01:04;;;;;;;6.95;4.53;;;;;;;15.91;57.78;96445.03;5046036;28;20104;-33
2023/03/25 06:03:33;;;;;;;5.25;4.18;;;;;;;15.89;57.88;96452.19;5037155;28;20056;-33
2023/03/25 06:06:00;;;;;;;5.75;4.30;;;;;;;15.98;57.73;96450.19;5042464;28;20021;-32
2023/03/25 06:08:25;;;;;;;6.50;4.78;;;;;;;15.98;57.73;96450.19;5042524;28;20502;-32
2023/03/25 06:10:57;;;;;;;5.75;4.25;;;;;;;16.00;57.53;96458.69;5043293;28;20112;-33
2023/03/25 06:13:26;;;;;;;7.80;4.80;;;;;;;16.02;57.42;96461.72;5041705;28;20472;-32
2023/03/25 06:15:55;;;;;;;7.93;4.30;;;;;;;15.97;57.81;96465.06;5043136;28;20401;-32
2023/03/25 06:18:24;;;;;;;7.97;4.10;;;;;;;15.89;58.17;96463.13;5040941;28;20378;-32
2023/03/25 06:20:52;;;;;;;6.55;4.72;;;;;;;15.97;57.93;96476.00;5034497;28;20034;-32
2023/03/25 06:23:19;;;;;;;6.32;4.28;;;;;;;16.12;57.53;96459.72;5045284;28;20031;-33
2023/03/25 06:25:44;;;;;;;7.05;4.47;;;;;;;16.16;57.29;96458.34;5037566;28;20072;-33
2023/03/25 06:28:10;;;;;;;6.07;4.40;;;;;;;16.05;57.35;96455.34;5044440;28;20013;-32
2023/03/25 06:30:35;;;;;;;5.60;3.60;;;;;;;15.95;57.60;96447.63;5039508;28;20025;-33
2023/03/25 06:33:04;;;;;;;4.85;3.60;;;;;;;15.90;57.65;96448.25;5042918;28;20025;-33
2023/03/25 06:35:30;;;;;;;5.55;4.13;;;;;;;16.03;57.33;96455.03;5041352;28;20099;-33
2023/03/25 06:37:55;;;;;;;5.60;3.60;;;;;;;16.05;57.31;96441.66;5042894;28;20378;-33
2023/03/25 06:40:21;;;;;;;6.28;3.67;;;;;;;15.95;57.44;96442.88;5051899;28;20018;-32
2023/03/25 06:42:46;;;;;;;4.55;3.30;;;;;;;16.08;57.32;96434.47;5039327;28;20029;-33
2023/03/25 06:45:12;;;;;;;6.25;3.75;;;;;;;16.19;57.05;96439.47;5041833;28;20050;-33
2023/03/25 06:47:38;;;;;;;4.57;3.83;;;;;;;16.08;57.34;96431.75;5041823;28;20100;-31
2023/03/25 06:50:04;;;;;;;8.13;4.25;;;;;;;16.29;57.09;96436.22;5041533;28;20044;-32
2023/03/25 06:52:29;;;;;;;6.85;4.15;;;;;;;16.27;57.04;96443.38;5034749;28;20033;-33
2023/03/25 06:54:55;;;;;;;5.40;4.35;;;;;;;16.18;57.61;96444.19;5039941;28;20024;-32
2023/03/25 06:57:23;;;;;;;6.53;4.68;;;;;;;16.32;57.29;96440.75;5043999;28;20433;-33
2023/03/25 06:59:49;;;;;;;6.70;4.78;;;;;;;16.46;56.99;96461.22;5038014;28;20032;-33
2023/03/25 07:02:14;;;;;;;6.25;5.00;;;;;;;16.29;57.38;96460.09;5038639;28;20022;-32
2023/03/25 07:04:40;;;;;;;8.77;5.63;;;;;;;16.30;57.21;96462.38;5042118;28;20421;-33
2023/03/25 07:07:07;;;;;;;9.07;6.13;;;;;;;16.34;57.36;96462.19;5043141;28;20423;-33
2023/03/25 07:09:32;;;;;;;8.07;5.75;;;;;;;16.26;57.52;96459.03;5043668;28;20625;-33
2023/03/25 07:11:57;;;;;;;8.23;5.78;;;;;;;15.96;58.75;96471.00;5041275;28;20021;-33
2023/03/25 07:14:23;;;;;;;11.38;6.75;;;;;;;16.20;58.09;96482.00;5041182;28;20025;-34
2023/03/25 07:16:49;;;;;;;8.48;6.60;;;;;;;16.17;58.31;96486.44;5042158;28;20024;-32
2023/03/25 07:19:15;;;;;;;8.65;6.50;;;;;;;16.38;58.32;96481.94;5045091;28;20388;-32
2023/03/25 07:21:40;;;;;;;11.18;7.03;;;;;;;16.14;58.82;96485.38;5044260;28;20028;-32
2023/03/25 07:24:06;;;;;;;10.10;6.78;;;;;;;16.16;58.93;96482.19;5047406;28;20121;-33
2023/03/25 07:26:31;;;;;;;7.60;6.50;;;;;;;16.24;58.56;96482.63;5039392;28;20020;-33
2023/03/25 07:28:57;;;;;;;8.38;6.22;;;;;;;16.26;58.36;96483.69;5035869;28;20029;-33
2023/03/25 07:31:23;;;;;;;8.68;5.78;;;;;;;16.33;58.12;96477.09;5047834;28;20017;-34
2023/03/25 07:33:50;;;;;;;7.60;5.88;;;;;;;16.27;58.11;96474.25;5040728;28;20032;-33
2023/03/25 07:36:16;;;;;;;6.93;5.78;;;;;;;16.39;57.94;96472.53;5036137;28;20112;-32
2023/03/25 07:38:41;;;;;;;8.95;5.78;;;;;;;16.31;58.02;96479.56;5043825;28;20048;-33
2023/03/25 07:41:10;;;;;;;8.68;6.55;;;;;;;16.53;57.67;96463.63;5035526;28;20052;-32
2023/03/25 07:43:35;;;;;;;9.57;6.68;;;;;;;16.19;58.82;96481.28;5040560;28;20025;-32
2023/03/25 07:46:01;;;;;;;11.25;7.15;;;;;;;16.32;58.63;96487.28;5041014;28;20029;-33
2023/03/25 07:48:26;;;;;;;8.30;6.72;;;;;;;16.51;58.18;96486.00;5040698;28;20055;-33
2023/03/25 07:50:52;;;;;;;9.30;7.18;;;;;;;16.60;57.79;96489.91;5040451;28;20080;-33
2023/03/25 07:53:18;;;;;;;9.07;6.40;;;;;;;16.62;57.73;96485.50;5040403;28;20021;-33
2023/03/25 07:55:44;;;;;;;9.68;6.75;;;;;;;16.51;57.89;96486.00;5036992;28;20114;-33
2023/03/25 07:58:10;;;;;;;8.95;6.70;;;;;;;16.32;58.71;96486.56;5037228;28;20040;-33
2023/03/25 08:00:36;;;;;;;10.05;6.32;;;;;;;16.42;58.42;96488.03;5047887;28;20029;-33
2023/03/25 08:03:02;;;;;;;8.52;6.78;;;;;;;16.50;57.77;96483.72;5040702;28;20018;-32
2023/03/25 08:05:29;;;;;;;8.13;6.25;;;;;;;16.27;58.33;96482.47;5040772;28;20377;-33
2023/03/25 08:07:54;;;;;;;8.48;6.18;;;;;;;16.31;58.52;96474.09;5032853;28;20370;-32
2023/03/25 08:10:20;;;;;;;7.88;6.65;;;;;;;16.36;58.49;96468.72;5040242;28;20028;-32
2023/03/25 08:12:45;;;;;;;9.25;6.35;;;;;;;16.53;57.91;96471.84;5035098;28;20025;-33
2023/03/25 08:15:12;;;;;;;9.43;6.50;;;;;;;16.40;58.29;96479.50;5043383;28;20025;-33
2023/03/25 08:17:38;;;;;;;7.85;5.82;;;;;;;16.57;57.79;96480.63;5035819;28;20021;-33
2023/03/25 08:20:06;;;;;;;7.88;5.75;;;;;;;16.57;57.68;96471.69;5042967;28;20430;-32
2023/03/25 08:22:32;;;;;;;7.88;5.78;;;;;;;16.70;57.30;96481.19;5037407;28;20118;-32
2023/03/25 08:24:58;;;;;;;8.45;6.10;;;;;;;16.69;57.63;96468.72;5040520;28;20026;-33
2023/03/25 08:27:23;;;;;;;7.57;6.07;;;;;;;16.62;57.61;96479.25;5040446;28;20020;-33
2023/03/25 08:29:56;;;;;;;9.95;6.63;;;;;;;16.46;58.33;96483.88;5040370;28;20032;-32
2023/03/25 08:32:26;;;;;;;7.90;5.72;;;;;;;16.95;57.07;96487.44;5041071;28;20377;-32
2023/03/25 08:34:53;;;;;;;7.03;5.00;;;;;;;16.97;56.29;96487.72;5040123;28;20021;-33
2023/03/25 08:37:20;;;;;;;8.63;5.80;;;;;;;17.01;56.73;96482.84;5040793;28;20029;-33
2023/03/25 08:39:49;;;;;;;7.03;5.13;;;;;;;16.87;57.28;96490.53;5040196;28;20013;-32
2023/03/25 08:42:15;;;;;;;6.75;4.93;;;;;;;16.87;57.02;96504.22;5040369;28;20021;-33
2023/03/25 08:44:41;;;;;;;8.02;4.70;;;;;;;17.10;56.56;96491.00;5040011;28;20362;-32
2023/03/25 08:47:06;;;;;;;6.75;4.25;;;;;;;16.84;57.43;96488.72;5041901;28;20146;-32
2023/03/25 08:49:32;;;;;;;6.40;4.30;;;;;;;17.18;56.15;96479.19;5039175;28;20120;-32
2023/03/25 08:51:59;;;;;;;8.00;4.78;;;;;;;17.00;56.44;96476.59;5047142;28;20463;-32
2023/03/25 08:54:24;;;;;;;5.75;3.90;;;;;;;17.03;56.34;96475.69;5038697;28;20025;-32
2023/03/25 08:56:50;;;;;;;6.93;3.47;;;;;;;16.92;56.29;96474.69;5050552;28;20021;-32
2023/03/25 08:59:16;;;;;;;5.32;3.92;;;;;;;17.13;55.49;96459.91;5043679;28;20032;-33
2023/03/25 09:01:43;;;;;;;4.88;3.38;;;;;;;17.10;55.00;96460.84;5043802;28;20021;-32
2023/03/25 09:04:09;;;;;;;5.97;3.65;;;;;;;17.16;55.33;96470.72;5039812;28;20108;-32
2023/03/25 09:06:35;;;;;;;6.13;3.60;;;;;;;17.04;55.87;96470.97;5044574;28;20047;-32
2023/03/25 09:09:03;;;;;;;6.90;3.70;;;;;;;16.88;56.59;96469.38;5046787;28;20029;-32
2023/03/25 09:11:29;;;;;;;4.75;3.08;;;;;;;17.11;55.46;96473.31;5047138;28;20171;-32
2023/03/25 09:13:54;;;;;;;5.55;3.35;;;;;;;17.09;55.65;96467.56;5045865;28;20045;-33
2023/03/25 09:16:19;;;;;;;6.57;3.50;;;;;;;17.22;55.18;96468.06;5046397;28;20021;-33
2023/03/25 09:18:45;;;;;;;7.28;3.70;;;;;;;17.07;55.93;96476.25;5044779;28;20024;-32
2023/03/25 09:21:10;;;;;;;4.43;2.95;;;;;;;17.26;55.27;96487.09;5035455;28;20327;-32
2023/03/25 09:23:36;;;;;;;5.80;3.13;;;;;;;17.17;55.47;96490.66;5043996;28;20042;-32
2023/03/25 09:26:04;;;;;;;7.15;3.53;;;;;;;17.40;54.77;96489.09;5044933;28;20040;-32
2023/03/25 09:28:30;;;;;;;6.53;3.63;;;;;;;17.20;55.36;96497.91;5046146;28;20158;-32
2023/03/25 09:30:56;;;;;;;4.40;3.33;;;;;;;17.25;55.13;96497.28;5037789;28;20017;-32
2023/03/25 09:33:22;;;;;;;5.32;3.33;;;;;;;17.25;55.15;96486.31;5043373;28;20024;-32
2023/03/25 09:35:49;;;;;;;6.05;3.10;;;;;;;17.49;54.54;96478.81;5049899;28;20380;-32
2023/03/25 09:38:15;;;;;;;5.53;3.53;;;;;;;17.37;54.68;96488.06;5038306;28;20115;-32
2023/03/25 09:40:42;;;;;;;7.93;3.08;;;;;;;17.48;54.81;96477.28;5046501;28;20431;-32
2023/03/25 09:43:41;;;;;;;4.55;2.75;;;;;;;17.33;54.86;96481.22;5044965;28;20369;-32
2023/03/25 09:46:08;;;;;;;5.18;3.22;;;;;;;17.53;54.52;96489.59;5050361;28;20040;-33
2023/03/25 09:48:37;;;;;;;6.70;3.15;;;;;;;17.48;54.55;96490.25;5043404;28;20041;-32
2023/03/25 09:51:19;;;;;;;5.50;3.00;;;;;;;17.39;54.93;96482.09;5042737;28;20405;-32
2023/03/25 09:54:24;;;;;;;4.53;2.72;;;;;;;17.31;54.99;96483.69;5046661;28;20099;-32
2023/03/25 09:56:51;;;;;;;4.47;2.65;;;;;;;17.33;54.71;96481.97;5035983;28;20137;-33
2023/03/25 09:59:22;;;;;;;4.03;2.65;;;;;;;17.30;54.62;96474.72;5041327;28;20061;-32
2023/03/25 10:02:20;;;;;;;3.38;2.25;;;;;;;17.37;54.11;96476.31;5045882;28;20033;-32
2023/03/25 10:04:53;;;;;;;4.63;2.30;;;;;;;17.49;53.95;96478.06;5044953;28;20056;-32
2023/03/25 10:07:29;;;;;;;3.67;2.35;;;;;;;17.49;53.76;96470.59;5045987;28;20028;-32
2023/03/25 10:10:01;;;;;;;4.75;2.40;;;;;;;17.50;53.94;96469.34;5042822;28;20424;-33
2023/03/25 10:12:46;;;;;;;4.53;2.40;;;;;;;17.37;53.69;96468.88;5049963;28;20052;-32
2023/03/25 10:15:31;;;;;;;4.22;2.05;;;;;;;17.36;53.62;96470.09;5045584;28;20033;-32
2023/03/25 10:17:56;;;;;;;3.78;1.98;;;;;;;17.39;53.72;96463.66;5037633;28;20021;-32
2023/03/25 10:21:00;;;;;;;3.25;2.20;;;;;;;17.41;53.57;96458.47;5045311;28;20029;-32
2023/03/25 10:23:45;;;;;;;;;;;;;;;17.41;53.44;96461.22;5042621;28;20026;-33
2023/03/25 10:26:18;;;;;;;4.15;2.20;;;;;;;17.55;53.27;96476.94;5035015;28;19909;-32
2023/03/25 10:29:08;;;;;;;4.28;1.80;;;;;;;17.55;52.90;96465.97;5042309;28;20020;-32
2023/03/25 10:31:42;;;;;;;4.20;2.15;;;;;;;17.63;52.56;96455.41;5046981;28;20030;-32
2023/03/25 10:34:15;;;;;;;4.28;2.22;;;;;;;17.53;52.26;96457.44;5042840;28;20552;-32
2023/03/25 10:36:50;;;;;;;4.07;2.25;;;;;;;17.58;52.24;96453.28;5047134;28;20072;-32
2023/03/25 10:39:19;;;;;;;6.10;1.88;;;;;;;17.62;52.32;96464.81;5042422;28;20021;-32
2023/03/25 10:41:59;;;;;;;4.55;2.22;;;;;;;17.51;52.62;96461.88;5042181;28;20112;-33
2023/03/25 10:44:27;;;;;;;5.60;2.13;;;;;;;17.50;52.41;96461.13;5044404;28;20063;-32
2023/03/25 10:47:05;;;;;;;5.40;2.10;;;;;;;17.53;52.56;96462.19;5046536;28;20485;-32
2023/03/25 10:49:32;;;;;;;4.78;1.90;;;;;;;17.65;51.94;96452.19;5035155;28;20068;-32
2023/03/25 10:51:59;;;;;;;4.53;2.15;;;;;;;17.65;51.89;96452.94;5040154;28;20024;-32
2023/03/25 10:54:38;;;;;;;3.85;2.58;;;;;;;17.64;51.95;96453.41;5049989;28;20029;-33
2023/03/25 10:57:09;;;;;;;3.83;1.70;;;;;;;17.61;52.07;96435.88;5040559;28;20021;-32
2023/03/25 10:59:52;;;;;;;5.00;2.22;;;;;;;17.68;51.64;96443.03;5036735;28;20025;-32
2023/03/25 11:02:21;;;;;;;3.67;1.95;;;;;;;17.62;51.86;96442.13;5045105;28;20098;-32
2023/03/25 11:04:51;;;;;;;3.75;1.70;;;;;;;17.78;51.69;96438.97;5044455;28;20108;-32
2023/03/25 11:07:33;;;;;;;7.50;1.80;;;;;;;17.67;51.49;96436.03;5038254;28;20025;-32
2023/03/25 11:10:24;;;;;;;4.22;1.85;;;;;;;17.70;51.70;96433.06;5038042;28;20112;-33
2023/03/25 11:12:51;;;;;;;3.03;1.70;;;;;;;17.67;51.38;96436.03;5042215;28;20035;-32
2023/03/25 11:15:43;;;;;;;3.42;1.63;;;;;;;17.63;51.54;96438.94;5044586;28;20024;-32
2023/03/25 11:18:26;;;;;;;4.63;2.08;;;;;;;17.75;51.40;96442.63;5038436;28;20044;-32
2023/03/25 11:20:55;;;;;;;4.20;2.55;;;;;;;17.73;51.10;96443.09;5042871;28;20040;-32
2023/03/25 11:23:50;;;;;;;3.38;1.98;;;;;;;17.75;51.66;96439.91;5033001;28;20040;-32
2023/03/25 11:26:22;;;;;;;4.00;2.40;;;;;;;17.65;51.73;96438.47;5036863;28;20025;-32
2023/03/25 11:28:50;;;;;;;3.60;2.17;;;;;;;17.73;51.38;96437.63;5043737;28;20373;-32
2023/03/25 11:31:22;;;;;;;3.33;2.33;;;;;;;17.83;51.34;96441.03;5044377;28;20460;-32
2023/03/25 11:34:10;;;;;;;2.95;1.90;;;;;;;17.93;51.03;96442.44;5043341;28;20408;-33
2023/03/25 11:36:39;;;;;;;4.15;2.00;;;;;;;17.76;51.01;96427.69;5038759;28;20438;-32
2023/03/25 11:39:17;;;;;;;4.00;1.92;;;;;;;17.75;50.75;96431.66;5035883;28;20491;-32
2023/03/25 11:41:42;;;;;;;6.28;1.90;;;;;;;17.70;50.17;96435.81;5046253;28;20021;-33
2023/03/25 11:44:22;;;;;;;4.93;1.80;;;;;;;17.91;50.07;96422.97;5041306;28;20400;-33
2023/03/25 11:46:56;;;;;;;5.00;1.77;;;;;;;17.86;50.48;96426.34;5043990;28;20021;-33
2023/03/25 11:49:23;;;;;;;4.95;1.63;;;;;;;17.80;50.25;96431.00;5041416;28;20052;-32
2023/03/25 11:52:02;;;;;;;3.25;1.70;;;;;;;17.80;49.57;96425.53;5034014;28;20026;-32